Time;durP1;ratioP1;P1;durP2;ratioP2;P2;SDS_P1;SDS_P2;PMS_P1;PMS_P2;Temp;Humidity;BMP_temperature;BMP_pressure;BME280_temperature;BME280_humidity;BME280_pressure;Samples;Min_cycle;Max_cycle;Signal;HPM_P1;HPM_P2
2022/07/21 00:01:32;;;;;;;8.63;7.57;;;25.50;61.00;;;;;;4991155;28;20429;-65
2022/07/21 00:03:57;;;;;;;8.23;7.43;;;25.50;61.00;;;;;;4991248;28;20430;-67
2022/07/21 00:06:23;;;;;;;8.57;7.78;;;25.50;61.00;;;;;;4991356;28;20486;-65
2022/07/21 00:08:49;;;;;;;8.60;7.80;;;25.50;61.00;;;;;;4991218;28;20497;-65
2022/07/21 00:11:14;;;;;;;8.40;7.60;;;25.50;60.90;;;;;;4989346;28;20398;-65
2022/07/21 00:13:40;;;;;;;8.43;7.47;;;25.50;60.90;;;;;;4990933;28;20422;-65
2022/07/21 00:16:06;;;;;;;8.23;7.53;;;25.50;60.90;;;;;;4989719;28;20399;-65
2022/07/21 00:18:32;;;;;;;8.48;7.68;;;25.50;60.80;;;;;;4990542;28;20410;-66
2022/07/21 00:20:58;;;;;;;8.52;7.72;;;25.50;60.90;;;;;;4990879;28;20394;-66
2022/07/21 00:23:24;;;;;;;7.70;7.00;;;25.50;60.80;;;;;;4990359;28;20398;-65
2022/07/21 00:25:50;;;;;;;7.90;7.10;;;25.50;60.90;;;;;;4990471;28;20449;-66
2022/07/21 00:28:17;;;;;;;8.00;7.20;;;25.50;60.80;;;;;;4990829;28;20892;-70
2022/07/21 00:30:43;;;;;;;7.93;7.22;;;25.40;61.30;;;;;;4989460;28;20420;-65
2022/07/21 00:33:09;;;;;;;8.63;7.80;;;25.50;60.80;;;;;;4988908;28;20449;-65
2022/07/21 00:35:34;;;;;;;8.10;7.30;;;25.50;60.80;;;;;;4990579;28;20434;-71
2022/07/21 00:38:00;;;;;;;8.50;7.70;;;25.50;60.70;;;;;;4989263;28;20406;-66
2022/07/21 00:40:26;;;;;;;8.18;7.47;;;25.40;60.70;;;;;;4990648;28;20395;-65
2022/07/21 00:42:52;;;;;;;7.80;7.10;;;25.50;60.70;;;;;;4990553;28;20903;-65
2022/07/21 00:45:18;;;;;;;8.27;7.47;;;25.40;60.70;;;;;;4990010;28;20395;-70
2022/07/21 00:47:44;;;;;;;7.93;7.13;;;25.40;60.70;;;;;;4990211;28;20433;-66
2022/07/21 00:50:13;;;;;;;7.87;7.13;;;25.40;60.60;;;;;;4988869;28;20453;-65
2022/07/21 00:52:39;;;;;;;8.32;7.60;;;25.40;60.60;;;;;;4991672;28;20746;-64
2022/07/21 00:55:09;;;;;;;7.90;7.20;;;25.40;60.70;;;;;;4990921;28;20485;-65
2022/07/21 00:57:35;;;;;;;8.37;7.57;;;25.40;60.70;;;;;;4991342;28;20473;-65
2022/07/21 01:00:05;;;;;;;8.20;7.40;;;25.40;60.60;;;;;;4991344;28;20909;-64
2022/07/21 01:02:33;;;;;;;7.93;7.13;;;25.40;60.60;;;;;;4990206;28;20497;-65
2022/07/21 01:04:59;;;;;;;8.50;7.57;;;25.40;60.60;;;;;;4991344;28;20398;-65
2022/07/21 01:07:24;;;;;;;7.50;6.80;;;25.50;60.70;;;;;;4989580;28;20403;-65
2022/07/21 01:09:50;;;;;;;7.63;7.03;;;25.40;60.60;;;;;;4990141;28;20924;-65
2022/07/21 01:12:17;;;;;;;7.32;6.63;;;25.40;60.60;;;;;;4991229;28;20853;-65
2022/07/21 01:14:42;;;;;;;7.72;7.03;;;25.40;60.60;;;;;;4991298;28;20869;-65
2022/07/21 01:17:08;;;;;;;7.05;6.45;;;25.40;60.60;;;;;;4991234;28;20448;-64
2022/07/21 01:19:34;;;;;;;7.25;6.53;;;25.40;60.60;;;;;;4990907;28;20410;-65
2022/07/21 01:21:59;;;;;;;7.43;6.73;;;25.40;60.60;;;;;;4990012;28;20897;-64
2022/07/21 01:24:25;;;;;;;7.18;6.53;;;25.40;60.60;;;;;;4991195;28;20402;-64
2022/07/21 01:26:52;;;;;;;7.03;6.40;;;25.30;60.50;;;;;;4991076;28;20457;-65
2022/07/21 01:29:19;;;;;;;6.88;6.28;;;25.40;60.60;;;;;;4990691;28;20953;-65
2022/07/21 01:31:47;;;;;;;7.15;6.45;;;25.40;60.60;;;;;;4989733;28;20742;-64
2022/07/21 01:34:13;;;;;;;6.97;6.38;;;25.40;60.60;;;;;;4990878;28;20758;-64
2022/07/21 01:36:39;;;;;;;7.00;6.30;;;25.40;60.60;;;;;;4994981;28;20389;-64
2022/07/21 01:41:50;;;;;;;7.40;6.70;;;25.40;60.60;;;;;;4995394;28;20930;-64
2022/07/21 01:44:16;;;;;;;6.82;6.20;;;25.30;60.50;;;;;;4995127;28;20496;-64
2022/07/21 01:46:44;;;;;;;6.70;6.10;;;25.30;60.50;;;;;;4994984;28;20756;-65
2022/07/21 01:49:11;;;;;;;6.20;5.63;;;25.30;60.50;;;;;;4993830;28;20394;-64
2022/07/21 01:51:37;;;;;;;6.75;6.15;;;25.30;60.50;;;;;;4994803;28;20409;-65
2022/07/21 01:54:04;;;;;;;6.60;5.90;;;25.30;61.00;;;;;;4993624;28;20532;-65
2022/07/21 01:56:30;;;;;;;6.90;6.20;;;25.30;60.50;;;;;;4993810;28;20391;-65
2022/07/21 01:58:57;;;;;;;6.60;6.00;;;25.30;60.50;;;;;;4994800;28;20394;-65
2022/07/21 02:01:26;;;;;;;6.38;5.78;;;25.30;60.50;;;;;;4994441;28;20394;-65
2022/07/21 02:03:53;;;;;;;6.32;5.70;;;25.30;60.50;;;;;;4994775;28;20406;-66
2022/07/21 02:06:18;;;;;;;6.55;5.85;;;25.30;60.50;;;;;;4994632;28;20391;-66
2022/07/21 02:08:44;;;;;;;6.85;6.25;;;25.30;60.50;;;;;;4994639;28;20403;-65
2022/07/21 02:11:11;;;;;;;6.47;5.88;;;25.30;60.50;;;;;;4994604;28;20413;-65
2022/07/21 02:13:37;;;;;;;6.30;5.70;;;25.30;60.50;;;;;;4992757;28;20494;-65
2022/07/21 02:16:03;;;;;;;6.35;5.72;;;25.30;60.50;;;;;;4994394;28;20481;-64
2022/07/21 02:18:29;;;;;;;6.90;6.30;;;25.30;60.50;;;;;;4993122;28;20403;-65
2022/07/21 02:20:55;;;;;;;7.00;6.27;;;25.30;60.40;;;;;;4993666;28;20400;-65
2022/07/21 02:23:21;;;;;;;6.45;5.85;;;25.30;60.40;;;;;;4993747;28;20422;-64
2022/07/21 02:25:48;;;;;;;6.75;6.05;;;25.30;60.40;;;;;;4994034;28;20386;-65
2022/07/21 02:28:13;;;;;;;6.50;5.90;;;25.30;60.40;;;;;;4993100;28;20486;-65
2022/07/21 02:30:39;;;;;;;6.20;5.60;;;25.30;60.40;;;;;;4992963;28;20525;-65
2022/07/21 02:33:05;;;;;;;6.30;5.70;;;25.30;60.50;;;;;;4994198;28;20418;-64
2022/07/21 02:35:32;;;;;;;6.17;5.60;;;25.20;60.40;;;;;;4993571;28;20437;-65
2022/07/21 02:37:59;;;;;;;6.05;5.45;;;25.30;60.50;;;;;;4994112;28;20401;-65
2022/07/21 02:40:24;;;;;;;6.38;5.78;;;25.30;60.50;;;;;;4994192;28;20473;-64
2022/07/21 02:42:50;;;;;;;6.22;5.68;;;25.30;60.50;;;;;;4994027;28;20482;-65
2022/07/21 02:45:16;;;;;;;6.25;5.65;;;25.30;60.50;;;;;;4994307;28;20453;-65
2022/07/21 02:47:55;;;;;;;6.15;5.55;;;25.20;60.40;;;;;;4991621;28;20893;-65
2022/07/21 02:50:22;;;;;;;6.28;5.68;;;25.30;60.50;;;;;;4994446;28;20887;-65
2022/07/21 02:52:48;;;;;;;5.97;5.25;;;25.30;60.50;;;;;;4994280;28;20943;-65
2022/07/21 02:55:14;;;;;;;6.57;5.97;;;25.30;60.50;;;;;;4994281;28;20395;-64
2022/07/21 02:57:40;;;;;;;5.90;5.40;;;25.20;60.40;;;;;;4975403;28;21235;-64
2022/07/21 03:00:09;;;;;;;5.67;5.17;;;25.20;60.40;;;;;;4975068;28;20400;-65
2022/07/21 03:02:34;;;;;;;6.20;5.60;;;25.20;60.40;;;;;;4973854;28;20403;-65
2022/07/21 03:05:00;;;;;;;6.47;5.88;;;25.20;60.50;;;;;;4974882;28;20397;-65
2022/07/21 03:07:26;;;;;;;6.17;5.40;;;25.30;60.60;;;;;;4974578;28;20398;-64
2022/07/21 03:09:51;;;;;;;6.07;5.57;;;25.20;60.60;;;;;;4974874;28;20438;-64
2022/07/21 03:12:17;;;;;;;6.10;5.50;;;25.30;60.60;;;;;;4973499;28;20499;-65
2022/07/21 03:14:42;;;;;;;6.20;5.60;;;25.30;60.50;;;;;;4974676;28;20406;-65
2022/07/21 03:17:08;;;;;;;8.80;5.72;;;25.30;60.70;;;;;;4973511;28;20388;-65
2022/07/21 03:19:34;;;;;;;8.83;6.13;;;25.30;61.20;;;;;;4972969;28;20492;-65
2022/07/21 03:21:59;;;;;;;7.37;6.07;;;25.30;63.00;;;;;;4973315;28;20396;-65
2022/07/21 03:24:25;;;;;;;10.63;6.13;;;25.30;62.70;;;;;;4973243;28;20499;-67
2022/07/21 03:26:50;;;;;;;9.25;6.22;;;25.30;63.20;;;;;;4973131;28;20412;-65
2022/07/21 03:29:16;;;;;;;11.30;6.67;;;25.40;62.40;;;;;;4974247;28;20428;-65
2022/07/21 03:31:42;;;;;;;11.68;6.45;;;25.40;61.60;;;;;;4973848;28;20550;-64
2022/07/21 03:34:08;;;;;;;10.53;6.73;;;25.30;61.60;;;;;;4973134;28;20428;-65
2022/07/21 03:36:33;;;;;;;9.82;7.00;;;25.30;62.20;;;;;;4974271;28;20487;-65
2022/07/21 03:38:59;;;;;;;10.18;7.15;;;25.30;61.00;;;;;;4974087;28;20874;-65
2022/07/21 03:41:25;;;;;;;9.37;7.30;;;25.30;61.60;;;;;;4973802;28;20831;-66
2022/07/21 03:43:50;;;;;;;9.48;7.05;;;25.30;61.10;;;;;;4974083;28;20400;-66
2022/07/21 03:46:16;;;;;;;10.13;7.00;;;25.30;61.20;;;;;;4974111;28;20403;-65
2022/07/21 03:48:42;;;;;;;9.73;7.00;;;25.30;60.80;;;;;;4974151;28;20798;-66
2022/07/21 03:51:08;;;;;;;8.77;7.43;;;25.30;61.10;;;;;;4974175;28;20451;-65
2022/07/21 03:53:34;;;;;;;9.40;7.10;;;25.30;61.20;;;;;;4973467;28;20419;-64
2022/07/21 03:56:00;;;;;;;9.13;7.53;;;25.30;61.30;;;;;;4973834;28;20393;-65
2022/07/21 03:58:25;;;;;;;8.18;6.97;;;25.30;60.90;;;;;;4973516;28;20491;-65
2022/07/21 04:00:51;;;;;;;11.00;7.37;;;25.20;60.90;;;;;;4973845;28;20384;-65
2022/07/21 04:03:16;;;;;;;11.70;7.95;;;25.30;61.30;;;;;;4972714;28;20439;-65
2022/07/21 04:05:43;;;;;;;13.88;7.60;;;25.20;60.70;;;;;;4971911;28;20414;-65
2022/07/21 04:08:11;;;;;;;12.60;7.75;;;25.20;60.80;;;;;;4972464;28;20451;-65
2022/07/21 04:10:38;;;;;;;18.40;7.20;;;25.20;61.20;;;;;;4973761;28;20500;-65
2022/07/21 04:13:07;;;;;;;16.60;7.88;;;25.20;61.00;;;;;;4973634;28;20404;-65
2022/07/21 04:15:33;;;;;;;11.32;7.57;;;25.20;61.00;;;;;;4971935;28;20451;-65
2022/07/21 04:17:58;;;;;;;11.70;7.40;;;25.20;60.80;;;;;;4973557;28;20415;-65
2022/07/21 04:20:24;;;;;;;11.90;7.03;;;25.20;60.80;;;;;;4973572;28;20428;-65
2022/07/21 04:22:50;;;;;;;13.23;7.22;;;25.10;60.60;;;;;;4972258;28;20392;-65
2022/07/21 04:25:17;;;;;;;11.98;7.40;;;25.10;60.70;;;;;;4973489;28;20392;-65
2022/07/21 04:27:44;;;;;;;10.77;7.47;;;25.20;60.70;;;;;;4972916;28;20408;-65
2022/07/21 04:30:13;;;;;;;11.38;6.93;;;25.20;60.70;;;;;;4983335;28;20446;-65
2022/07/21 04:32:39;;;;;;;10.13;7.10;;;25.20;60.70;;;;;;4991383;28;20414;-65
2022/07/21 04:35:05;;;;;;;8.88;6.80;;;25.20;60.70;;;;;;4991813;28;20410;-66
2022/07/21 04:37:31;;;;;;;11.38;6.90;;;25.20;60.70;;;;;;4992002;28;20387;-64
2022/07/21 04:39:57;;;;;;;11.20;6.90;;;25.20;60.70;;;;;;4992530;28;20949;-65
2022/07/21 04:42:23;;;;;;;8.60;6.87;;;25.10;60.70;;;;;;4992538;28;20406;-65
2022/07/21 04:44:48;;;;;;;9.25;6.82;;;25.20;60.80;;;;;;4991300;28;20406;-65
2022/07/21 04:47:14;;;;;;;10.00;6.70;;;25.10;60.70;;;;;;4992642;28;20469;-65
2022/07/21 04:49:40;;;;;;;8.25;6.32;;;25.10;60.70;;;;;;4976129;28;20946;-64
2022/07/21 04:52:06;;;;;;;9.63;6.30;;;25.10;60.60;;;;;;4973112;28;20431;-65
2022/07/21 04:54:32;;;;;;;7.88;6.38;;;25.10;60.70;;;;;;4972858;28;20829;-65
2022/07/21 04:56:57;;;;;;;8.50;6.37;;;25.10;60.70;;;;;;4972966;28;20475;-65
2022/07/21 04:59:23;;;;;;;9.50;6.80;;;25.20;60.80;;;;;;4981264;28;20450;-65
2022/07/21 05:01:49;;;;;;;6.78;6.07;;;25.10;60.80;;;;;;4991537;28;20477;-70
2022/07/21 05:04:14;;;;;;;7.13;6.10;;;25.10;60.70;;;;;;4991979;28;20405;-65
2022/07/21 05:06:40;;;;;;;7.32;6.00;;;25.10;60.80;;;;;;4990716;28;20398;-65
2022/07/21 05:09:06;;;;;;;7.43;5.77;;;25.10;60.80;;;;;;4991523;28;20405;-65
2022/07/21 05:11:31;;;;;;;6.47;5.72;;;25.10;60.70;;;;;;4991407;28;20765;-69
2022/07/21 05:13:58;;;;;;;12.93;6.93;;;25.10;60.70;;;;;;4990559;28;20432;-65
2022/07/21 05:16:23;;;;;;;14.75;7.70;;;25.10;62.20;;;;;;4991966;28;20796;-65
2022/07/21 05:18:49;;;;;;;14.20;7.80;;;25.10;61.50;;;;;;4991493;28;20448;-65
2022/07/21 05:21:14;;;;;;;10.73;6.88;;;25.20;61.50;;;;;;4991886;28;20970;-65
2022/07/21 05:23:40;;;;;;;8.53;7.07;;;25.20;61.70;;;;;;4991018;28;20426;-65
2022/07/21 05:26:06;;;;;;;7.78;6.78;;;25.20;62.20;;;;;;4992475;28;22285;-65
2022/07/21 05:28:32;;;;;;;7.70;6.20;;;25.20;61.40;;;;;;4994041;28;20516;-65
2022/07/21 05:30:58;;;;;;;9.00;6.10;;;25.20;61.40;;;;;;4991713;28;20397;-66
2022/07/21 05:33:24;;;;;;;7.37;6.20;;;25.10;61.40;;;;;;4991497;28;20829;-65
2022/07/21 05:35:49;;;;;;;7.55;6.32;;;25.20;61.40;;;;;;4990254;28;20792;-65
2022/07/21 05:38:15;;;;;;;7.23;6.13;;;25.20;62.00;;;;;;4991637;28;20387;-64
2022/07/21 05:40:40;;;;;;;7.45;5.90;;;25.10;61.30;;;;;;4991395;28;20402;-65
2022/07/21 05:43:06;;;;;;;7.82;6.35;;;25.10;60.80;;;;;;4991779;28;20386;-65
2022/07/21 05:45:32;;;;;;;7.17;5.90;;;25.20;61.50;;;;;;4991094;28;20734;-65
2022/07/21 05:47:57;;;;;;;7.28;6.25;;;25.20;61.50;;;;;;4991608;28;20436;-65
2022/07/21 05:50:23;;;;;;;7.38;5.93;;;25.20;61.00;;;;;;4991491;28;20406;-65
2022/07/21 05:52:49;;;;;;;6.57;5.97;;;25.20;61.10;;;;;;4991364;28;20498;-65
2022/07/21 05:55:15;;;;;;;6.80;5.90;;;25.20;61.00;;;;;;4991641;28;20513;-65
2022/07/21 05:57:41;;;;;;;6.30;5.70;;;25.20;60.70;;;;;;4991054;28;20394;-64
2022/07/21 06:00:07;;;;;;;6.45;5.85;;;25.20;60.80;;;;;;4991594;28;20401;-65
2022/07/21 06:02:33;;;;;;;6.45;5.85;;;25.20;61.00;;;;;;4991504;28;20390;-64
2022/07/21 06:04:59;;;;;;;6.77;5.80;;;25.10;61.00;;;;;;4991558;28;20457;-65
2022/07/21 06:07:25;;;;;;;6.45;5.72;;;25.20;60.70;;;;;;4991376;28;20390;-65
2022/07/21 06:09:50;;;;;;;6.50;5.80;;;25.20;60.80;;;;;;4991037;28;20478;-64
2022/07/21 06:12:16;;;;;;;6.80;6.10;;;25.20;60.70;;;;;;4991469;28;20409;-65
2022/07/21 06:14:42;;;;;;;6.53;5.93;;;25.10;60.80;;;;;;4991217;28;20438;-65
2022/07/21 06:17:08;;;;;;;6.30;5.70;;;25.20;60.70;;;;;;4990150;28;20892;-65
2022/07/21 06:19:33;;;;;;;6.55;5.50;;;25.20;60.80;;;;;;4990921;28;20402;-65
2022/07/21 06:21:59;;;;;;;6.03;5.43;;;25.20;60.70;;;;;;4992584;28;20726;-65
2022/07/21 06:24:26;;;;;;;6.07;5.47;;;25.20;60.80;;;;;;4995037;28;20494;-65
2022/07/21 06:26:55;;;;;;;6.10;5.50;;;25.20;60.80;;;;;;4994807;28;20414;-65
2022/07/21 06:29:21;;;;;;;6.18;5.60;;;25.20;60.50;;;;;;4994917;28;20406;-65
2022/07/21 06:31:47;;;;;;;6.35;5.75;;;25.20;60.20;;;;;;4994341;28;20409;-65
2022/07/21 06:34:12;;;;;;;6.13;5.53;;;25.20;60.40;;;;;;4994762;28;20777;-67
2022/07/21 06:36:38;;;;;;;6.82;5.80;;;25.20;60.20;;;;;;4993491;28;20881;-65
2022/07/21 06:39:04;;;;;;;6.30;5.70;;;25.20;60.10;;;;;;4994352;28;20752;-66
2022/07/21 06:41:30;;;;;;;7.63;5.90;;;25.20;60.70;;;;;;4994389;28;20445;-65
2022/07/21 06:43:55;;;;;;;6.75;5.38;;;25.20;60.60;;;;;;4993033;28;20461;-65
2022/07/21 06:46:21;;;;;;;7.50;5.90;;;25.20;60.50;;;;;;4993360;28;20430;-66
2022/07/21 06:48:48;;;;;;;6.72;5.50;;;25.20;60.40;;;;;;4994376;28;20409;-65
2022/07/21 06:51:14;;;;;;;8.20;5.47;;;25.20;60.50;;;;;;4994803;28;20382;-66
2022/07/21 06:53:42;;;;;;;6.00;5.40;;;25.20;60.40;;;;;;4993676;28;20484;-70
2022/07/21 06:56:08;;;;;;;5.97;5.37;;;25.20;60.40;;;;;;4994470;28;20405;-70
2022/07/21 06:58:34;;;;;;;5.88;5.38;;;25.20;60.50;;;;;;4994927;28;20398;-66
2022/07/21 07:01:00;;;;;;;6.50;5.90;;;25.20;60.50;;;;;;4994287;28;20408;-65
2022/07/21 07:03:25;;;;;;;6.20;5.60;;;25.20;60.30;;;;;;4994313;28;20461;-65
2022/07/21 07:05:51;;;;;;;6.13;5.53;;;25.20;60.10;;;;;;4993787;28;21268;-66
2022/07/21 07:08:17;;;;;;;5.73;5.23;;;25.20;60.00;;;;;;4994877;28;20405;-65
2022/07/21 07:10:44;;;;;;;5.97;5.28;;;25.20;60.40;;;;;;4993932;28;20881;-66
2022/07/21 07:13:10;;;;;;;6.90;5.50;;;25.10;60.10;;;;;;4994236;28;20419;-65
2022/07/21 07:15:36;;;;;;;6.00;5.50;;;25.20;60.20;;;;;;4993604;28;20449;-66
2022/07/21 07:18:01;;;;;;;6.30;5.70;;;25.10;60.10;;;;;;4994036;28;20815;-65
2022/07/21 07:20:27;;;;;;;5.73;5.20;;;25.20;60.10;;;;;;4994037;28;20402;-65
2022/07/21 07:22:53;;;;;;;6.13;5.53;;;25.10;60.20;;;;;;4993690;28;20485;-66
2022/07/21 07:25:19;;;;;;;6.10;5.50;;;25.20;60.10;;;;;;4994068;28;20494;-65
2022/07/21 07:27:49;;;;;;;5.80;5.20;;;25.10;60.00;;;;;;4991586;28;20434;-65
2022/07/21 07:30:17;;;;;;;5.90;5.30;;;25.10;60.00;;;;;;4988333;28;20402;-65
2022/07/21 07:32:43;;;;;;;5.80;5.10;;;25.20;60.00;;;;;;4992713;28;20418;-65
2022/07/21 07:35:10;;;;;;;6.55;5.30;;;25.20;60.20;;;;;;4993725;28;20403;-66
2022/07/21 07:37:37;;;;;;;6.15;5.55;;;25.20;60.10;;;;;;4992062;28;20406;-65
2022/07/21 07:40:05;;;;;;;5.60;5.10;;;25.10;60.20;;;;;;4992401;28;20441;-67
2022/07/21 07:42:31;;;;;;;5.80;5.30;;;25.20;60.10;;;;;;4992996;28;21242;-67
2022/07/21 07:44:57;;;;;;;5.65;5.07;;;25.20;60.10;;;;;;4991800;28;20935;-65
2022/07/21 07:47:23;;;;;;;6.05;5.45;;;25.10;60.00;;;;;;4993369;28;20383;-65
2022/07/21 07:49:50;;;;;;;6.15;5.30;;;25.10;60.10;;;;;;4992788;28;20391;-66
2022/07/21 07:52:16;;;;;;;5.60;5.10;;;25.10;59.90;;;;;;4993370;28;20461;-65
2022/07/21 07:54:41;;;;;;;5.80;5.30;;;25.10;59.90;;;;;;4992937;28;20422;-66
2022/07/21 07:57:07;;;;;;;6.10;5.17;;;25.20;60.10;;;;;;4993264;28;20398;-66
2022/07/21 07:59:33;;;;;;;6.30;5.70;;;25.10;60.10;;;;;;4993049;28;20401;-67
2022/07/21 08:01:58;;;;;;;6.25;5.57;;;25.20;62.00;;;;;;4991557;28;20395;-65
2022/07/21 08:04:24;;;;;;;5.77;5.27;;;25.20;61.00;;;;;;4992975;28;20387;-66
2022/07/21 08:06:50;;;;;;;6.03;5.30;;;25.20;60.50;;;;;;4993261;28;20405;-65
2022/07/21 08:09:17;;;;;;;5.72;5.22;;;25.20;61.30;;;;;;4991510;28;20402;-65
2022/07/21 08:11:46;;;;;;;6.47;5.30;;;25.20;61.70;;;;;;4992401;28;20397;-65
2022/07/21 08:14:12;;;;;;;5.93;5.33;;;25.20;61.20;;;;;;4991774;28;20461;-65
2022/07/21 08:16:37;;;;;;;6.07;5.47;;;25.20;61.40;;;;;;4992633;28;20398;-65
2022/07/21 08:19:03;;;;;;;7.80;5.83;;;25.20;61.00;;;;;;4992755;28;20963;-66
2022/07/21 08:21:30;;;;;;;7.90;5.80;;;25.20;60.90;;;;;;4992795;28;20421;-66
2022/07/21 08:23:57;;;;;;;6.38;5.78;;;25.20;61.20;;;;;;4989591;28;20904;-66
2022/07/21 08:26:22;;;;;;;7.43;5.85;;;25.20;61.10;;;;;;4978315;28;20418;-66
2022/07/21 08:28:49;;;;;;;7.40;5.80;;;25.20;60.80;;;;;;4972712;28;20490;-70
2022/07/21 08:31:14;;;;;;;7.10;6.40;;;25.20;60.80;;;;;;4986606;28;20900;-66
2022/07/21 08:33:40;;;;;;;7.32;6.50;;;25.20;61.40;;;;;;4991660;28;20481;-65
2022/07/21 08:36:06;;;;;;;7.10;6.40;;;25.20;60.90;;;;;;4991924;28;20440;-65
2022/07/21 08:38:31;;;;;;;8.47;6.50;;;25.20;61.30;;;;;;4989481;28;20433;-70
2022/07/21 08:40:57;;;;;;;6.72;5.88;;;25.20;61.00;;;;;;4989034;28;20774;-65
2022/07/21 08:43:24;;;;;;;7.07;6.15;;;25.20;60.90;;;;;;4988945;28;20401;-67
2022/07/21 08:45:50;;;;;;;7.18;6.22;;;25.20;60.70;;;;;;4988268;28;20394;-65
2022/07/21 08:48:19;;;;;;;6.70;5.80;;;25.30;60.90;;;;;;4989042;28;20402;-66
2022/07/21 08:50:45;;;;;;;6.70;5.85;;;25.20;60.80;;;;;;4990184;28;20394;-69
2022/07/21 08:53:12;;;;;;;6.80;6.10;;;25.20;61.00;;;;;;4990178;28;20446;-66
2022/07/21 08:55:41;;;;;;;6.50;5.85;;;25.20;60.70;;;;;;4988633;28;20411;-66
2022/07/21 08:58:09;;;;;;;6.75;5.97;;;25.20;60.90;;;;;;4990069;28;20390;-65
2022/07/21 09:00:41;;;;;;;6.90;5.63;;;25.20;61.10;;;;;;4988331;28;20421;-66
2022/07/21 09:03:18;;;;;;;7.00;6.30;;;25.30;60.60;;;;;;4988971;28;20491;-65
2022/07/21 09:06:04;;;;;;;6.60;6.00;;;25.20;60.90;;;;;;4987600;28;20748;-65
2022/07/21 09:08:35;;;;;;;6.68;6.07;;;25.30;60.70;;;;;;4988967;28;20406;-71
2022/07/21 09:11:18;;;;;;;7.07;6.38;;;25.30;60.40;;;;;;4987794;28;20405;-66
2022/07/21 09:13:51;;;;;;;7.50;6.80;;;25.20;60.50;;;;;;4987361;28;20461;-65
2022/07/21 09:16:39;;;;;;;7.25;6.55;;;25.30;60.70;;;;;;4990221;28;20390;-66
2022/07/21 09:19:06;;;;;;;7.88;7.03;;;25.30;60.70;;;;;;4987972;28;20974;-65
2022/07/21 09:21:35;;;;;;;7.22;6.53;;;25.30;60.60;;;;;;4989903;28;20398;-68
2022/07/21 09:24:25;;;;;;;6.82;6.22;;;25.30;60.50;;;;;;4986089;28;20875;-69
2022/07/21 09:27:23;;;;;;;6.63;6.03;;;25.30;60.40;;;;;;4988612;28;20410;-67
2022/07/21 09:29:48;;;;;;;7.20;6.47;;;25.30;60.40;;;;;;4988109;28;20429;-66
2022/07/21 09:32:30;;;;;;;7.40;6.67;;;25.30;60.40;;;;;;4989765;28;20422;-66
2022/07/21 09:34:58;;;;;;;7.50;6.70;;;25.30;60.50;;;;;;4989852;28;20864;-66
2022/07/21 09:37:24;;;;;;;7.07;6.43;;;25.30;60.50;;;;;;4988796;28;20877;-67
2022/07/21 09:39:56;;;;;;;7.25;6.55;;;25.30;61.00;;;;;;4989256;28;20405;-68
2022/07/21 09:42:29;;;;;;;7.35;6.65;;;25.30;60.50;;;;;;4985950;28;20920;-71
2022/07/21 09:44:58;;;;;;;7.73;6.93;;;25.30;60.50;;;;;;4988108;28;20461;-70
2022/07/21 09:47:26;;;;;;;7.70;7.00;;;25.30;60.50;;;;;;4988631;28;20398;-66
2022/07/21 09:49:53;;;;;;;6.87;6.20;;;25.30;60.50;;;;;;4989094;28;20402;-70
2022/07/21 09:52:30;;;;;;;7.40;6.70;;;25.20;60.40;;;;;;4986967;28;20433;-66
2022/07/21 09:54:59;;;;;;;6.95;6.32;;;25.30;60.90;;;;;;4989496;28;20406;-65
2022/07/21 09:57:25;;;;;;;7.60;6.80;;;25.30;60.90;;;;;;4993054;28;20394;-66
2022/07/21 09:59:51;;;;;;;7.97;7.28;;;25.30;61.20;;;;;;4992344;28;20422;-69
2022/07/21 10:02:26;;;;;;;7.78;7.05;;;25.40;61.20;;;;;;4992197;28;20391;-66
2022/07/21 10:04:55;;;;;;;8.07;7.35;;;25.30;60.90;;;;;;4989915;28;20426;-67
2022/07/21 10:07:22;;;;;;;7.53;6.82;;;25.30;60.70;;;;;;4990343;28;20399;-66
2022/07/21 10:09:48;;;;;;;8.10;7.30;;;25.30;60.70;;;;;;4991458;28;20426;-71
2022/07/21 10:12:15;;;;;;;8.13;7.35;;;25.30;60.80;;;;;;4991544;28;20394;-66
2022/07/21 10:14:42;;;;;;;8.30;7.50;;;25.30;60.60;;;;;;4991705;28;20450;-71
2022/07/21 10:17:08;;;;;;;8.85;7.95;;;25.30;60.70;;;;;;4991563;28;20390;-66
2022/07/21 10:19:54;;;;;;;8.18;7.47;;;25.30;60.60;;;;;;4991681;28;20418;-67
2022/07/21 10:22:57;;;;;;;8.75;7.97;;;25.30;60.70;;;;;;4991742;28;20386;-66
2022/07/21 10:25:23;;;;;;;8.35;7.55;;;25.30;60.70;;;;;;4989833;28;20402;-66
2022/07/21 10:28:11;;;;;;;8.80;8.00;;;25.30;60.90;;;;;;4991238;28;20398;-65
2022/07/21 10:30:40;;;;;;;9.20;8.32;;;25.30;60.80;;;;;;4991576;28;20394;-66
2022/07/21 10:33:08;;;;;;;8.68;7.88;;;25.30;61.00;;;;;;4991540;28;20908;-65
2022/07/21 10:35:33;;;;;;;8.70;7.90;;;25.30;60.80;;;;;;4991569;28;20496;-67
2022/07/21 10:38:02;;;;;;;9.00;8.10;;;25.30;60.70;;;;;;4991277;28;20482;-66
2022/07/21 10:40:28;;;;;;;9.07;8.27;;;25.30;60.70;;;;;;4991450;28;20398;-67
2022/07/21 10:43:00;;;;;;;9.07;8.20;;;25.30;61.00;;;;;;4990087;28;20465;-65
2022/07/21 10:45:39;;;;;;;9.10;8.30;;;25.30;60.70;;;;;;4992523;28;20948;-65
2022/07/21 10:48:26;;;;;;;9.27;8.48;;;25.30;60.70;;;;;;4989743;28;20425;-66
2022/07/21 10:50:52;;;;;;;9.15;8.25;;;25.30;60.90;;;;;;4989838;28;20501;-67
2022/07/21 10:53:19;;;;;;;9.50;8.60;;;25.30;60.80;;;;;;4992539;28;20411;-66
2022/07/21 10:55:50;;;;;;;9.68;8.80;;;25.30;60.70;;;;;;4992181;28;20405;-70
2022/07/21 10:58:23;;;;;;;9.15;8.35;;;25.30;60.70;;;;;;4985078;28;20456;-66
2022/07/21 11:00:53;;;;;;;9.25;8.45;;;25.30;60.70;;;;;;4992044;28;20441;-67
2022/07/21 11:03:20;;;;;;;9.18;8.23;;;25.30;60.60;;;;;;4989818;28;20394;-68
2022/07/21 11:06:24;;;;;;;9.40;8.47;;;25.30;60.80;;;;;;4991923;28;20465;-66
2022/07/21 11:09:02;;;;;;;9.55;8.65;;;25.30;60.90;;;;;;4989949;28;20397;-64
2022/07/21 11:11:29;;;;;;;9.90;8.43;;;25.40;61.00;;;;;;4990985;28;20839;-64
2022/07/21 11:14:13;;;;;;;11.85;8.48;;;25.40;61.00;;;;;;4991146;28;20499;-64
2022/07/21 11:16:42;;;;;;;10.65;9.05;;;25.30;60.90;;;;;;4989617;28;20391;-64
2022/07/21 11:19:52;;;;;;;12.63;9.23;;;25.40;61.10;;;;;;4990775;28;21010;-68
2022/07/21 11:22:29;;;;;;;12.07;8.90;;;25.40;61.00;;;;;;4948267;29;20402;-67
2022/07/21 11:24:57;;;;;;;10.13;9.07;;;25.30;61.00;;;;;;4950497;29;20919;-64
2022/07/21 11:27:25;;;;;;;10.30;9.13;;;25.30;60.90;;;;;;4966807;28;20428;-68
2022/07/21 11:29:56;;;;;;;9.70;8.73;;;25.30;61.00;;;;;;4991193;28;20506;-64
2022/07/21 11:32:23;;;;;;;10.10;9.02;;;25.30;60.90;;;;;;4990571;28;20820;-69
2022/07/21 11:34:54;;;;;;;9.70;8.70;;;25.30;60.90;;;;;;4991371;28;20436;-66
2022/07/21 11:37:39;;;;;;;9.65;8.50;;;25.30;61.00;;;;;;4989499;28;20397;-65
2022/07/21 11:40:13;;;;;;;9.80;8.50;;;25.30;60.90;;;;;;4989869;28;20429;-64
2022/07/21 11:42:40;;;;;;;9.98;8.93;;;25.30;60.90;;;;;;4989232;28;20399;-65
2022/07/21 11:45:08;;;;;;;9.80;8.75;;;25.30;61.00;;;;;;4991718;28;20485;-64
2022/07/21 11:47:33;;;;;;;9.50;8.40;;;25.30;60.90;;;;;;4991474;28;20473;-65
2022/07/21 11:50:01;;;;;;;9.45;8.55;;;25.30;60.90;;;;;;4990707;28;20820;-64
2022/07/21 11:52:30;;;;;;;9.88;8.88;;;25.30;60.70;;;;;;4990745;28;20884;-64
2022/07/21 11:54:57;;;;;;;10.20;9.18;;;25.40;60.80;;;;;;4988633;28;20430;-64
2022/07/21 11:57:24;;;;;;;9.70;8.80;;;25.40;61.00;;;;;;4991366;28;20936;-65
2022/07/21 11:59:51;;;;;;;9.52;8.52;;;25.30;60.90;;;;;;4991206;28;20398;-65
2022/07/21 12:02:27;;;;;;;9.80;8.90;;;25.30;60.90;;;;;;4988647;28;20839;-65
2022/07/21 12:04:55;;;;;;;9.70;8.80;;;25.30;61.00;;;;;;4991269;28;20386;-66
2022/07/21 12:07:39;;;;;;;9.90;8.90;;;25.30;60.80;;;;;;4991088;28;21270;-64
2022/07/21 12:10:23;;;;;;;10.00;8.98;;;25.40;61.30;;;;;;4989089;28;20390;-66
2022/07/21 12:12:50;;;;;;;9.70;8.80;;;25.40;61.30;;;;;;4988453;28;20768;-65
2022/07/21 12:15:31;;;;;;;9.98;8.98;;;25.40;61.40;;;;;;4990937;28;20410;-65
2022/07/21 12:18:19;;;;;;;10.55;8.80;;;25.40;61.50;;;;;;4988092;28;20399;-65
2022/07/21 12:20:45;;;;;;;10.02;9.05;;;25.40;61.40;;;;;;4990436;28;20861;-66
2022/07/21 12:23:26;;;;;;;9.80;8.85;;;25.40;61.20;;;;;;4989573;28;20493;-66
2022/07/21 12:25:54;;;;;;;9.77;8.75;;;25.40;61.10;;;;;;4989676;28;20447;-65
2022/07/21 12:28:20;;;;;;;10.30;9.17;;;25.40;61.00;;;;;;4990842;28;20463;-70
2022/07/21 12:30:50;;;;;;;9.57;8.68;;;25.40;61.10;;;;;;4991157;28;20464;-66
2022/07/21 12:33:20;;;;;;;9.90;8.90;;;25.30;61.00;;;;;;4986742;28;20464;-65
2022/07/21 12:35:58;;;;;;;10.05;9.15;;;25.40;61.30;;;;;;4990490;28;20426;-65
2022/07/21 12:38:45;;;;;;;10.15;9.15;;;25.40;61.30;;;;;;4988892;28;20383;-65
2022/07/21 12:41:13;;;;;;;10.75;9.68;;;25.30;61.00;;;;;;4989789;28;20406;-65
2022/07/21 12:43:39;;;;;;;10.40;9.40;;;25.30;61.20;;;;;;4988115;28;20823;-67
2022/07/21 12:46:12;;;;;;;10.10;9.10;;;25.40;61.10;;;;;;4988705;28;20930;-65
2022/07/21 12:48:38;;;;;;;10.05;9.05;;;25.40;61.20;;;;;;4985084;28;20894;-65
2022/07/21 12:51:14;;;;;;;10.48;9.40;;;25.40;61.20;;;;;;4990364;28;20407;-65
2022/07/21 12:53:50;;;;;;;10.75;9.75;;;25.40;61.10;;;;;;4987797;28;20448;-67